sensor_id;sensor_type;location;lat;lon;timestamp;P1;durP1;ratioP1;P2;durP2;ratioP2
6133;SDS011;3098;42.678;23.364;2023-05-07T00:01:13;17.30;;;7.93;;
6133;SDS011;3098;42.678;23.364;2023-05-07T00:03:41;15.48;;;7.80;;
6133;SDS011;3098;42.678;23.364;2023-05-07T00:06:09;22.83;;;8.40;;
6133;SDS011;3098;42.678;23.364;2023-05-07T00:08:37;22.55;;;8.30;;
6133;SDS011;3098;42.678;23.364;2023-05-07T00:11:04;19.33;;;8.77;;
6133;SDS011;3098;42.678;23.364;2023-05-07T00:13:31;21.33;;;8.25;;
6133;SDS011;3098;42.678;23.364;2023-05-07T00:16:00;18.00;;;8.00;;
6133;SDS011;3098;42.678;23.364;2023-05-07T00:18:27;16.20;;;8.48;;
6133;SDS011;3098;42.678;23.364;2023-05-07T00:20:56;18.83;;;8.25;;
6133;SDS011;3098;42.678;23.364;2023-05-07T00:23:23;16.42;;;8.40;;
6133;SDS011;3098;42.678;23.364;2023-05-07T00:25:50;15.38;;;8.48;;
6133;SDS011;3098;42.678;23.364;2023-05-07T00:28:17;13.43;;;8.07;;
6133;SDS011;3098;42.678;23.364;2023-05-07T00:30:44;16.92;;;7.85;;
6133;SDS011;3098;42.678;23.364;2023-05-07T00:33:11;16.10;;;8.90;;
6133;SDS011;3098;42.678;23.364;2023-05-07T00:35:38;18.83;;;8.98;;
6133;SDS011;3098;42.678;23.364;2023-05-07T00:38:07;19.58;;;8.63;;
6133;SDS011;3098;42.678;23.364;2023-05-07T00:40:34;16.88;;;8.15;;
6133;SDS011;3098;42.678;23.364;2023-05-07T00:43:01;14.27;;;8.18;;
6133;SDS011;3098;42.678;23.364;2023-05-07T00:45:28;20.75;;;9.80;;
6133;SDS011;3098;42.678;23.364;2023-05-07T00:47:55;14.35;;;8.00;;
6133;SDS011;3098;42.678;23.364;2023-05-07T00:50:25;16.85;;;8.15;;
6133;SDS011;3098;42.678;23.364;2023-05-07T00:52:55;16.70;;;9.02;;
6133;SDS011;3098;42.678;23.364;2023-05-07T00:55:23;19.08;;;8.70;;
6133;SDS011;3098;42.678;23.364;2023-05-07T00:57:50;15.98;;;8.13;;
6133;SDS011;3098;42.678;23.364;2023-05-07T01:00:18;14.70;;;7.80;;
6133;SDS011;3098;42.678;23.364;2023-05-07T01:02:46;17.45;;;8.90;;
6133;SDS011;3098;42.678;23.364;2023-05-07T01:05:14;15.73;;;6.45;;
6133;SDS011;3098;42.678;23.364;2023-05-07T01:07:44;19.70;;;6.10;;
6133;SDS011;3098;42.678;23.364;2023-05-07T01:10:14;11.50;;;6.63;;
6133;SDS011;3098;42.678;23.364;2023-05-07T01:12:45;11.52;;;6.05;;
6133;SDS011;3098;42.678;23.364;2023-05-07T01:15:14;13.07;;;6.07;;
6133;SDS011;3098;42.678;23.364;2023-05-07T01:17:42;12.27;;;6.78;;
6133;SDS011;3098;42.678;23.364;2023-05-07T01:20:10;10.98;;;5.95;;
6133;SDS011;3098;42.678;23.364;2023-05-07T01:22:40;9.40;;;5.45;;
6133;SDS011;3098;42.678;23.364;2023-05-07T01:25:09;10.68;;;4.97;;
6133;SDS011;3098;42.678;23.364;2023-05-07T01:27:36;15.27;;;6.30;;
6133;SDS011;3098;42.678;23.364;2023-05-07T01:30:03;9.52;;;5.53;;
6133;SDS011;3098;42.678;23.364;2023-05-07T01:32:32;10.93;;;5.53;;
6133;SDS011;3098;42.678;23.364;2023-05-07T01:35:04;10.00;;;5.15;;
6133;SDS011;3098;42.678;23.364;2023-05-07T01:37:34;13.60;;;5.20;;
6133;SDS011;3098;42.678;23.364;2023-05-07T01:40:02;7.07;;;4.57;;
6133;SDS011;3098;42.678;23.364;2023-05-07T01:42:30;9.50;;;5.20;;
6133;SDS011;3098;42.678;23.364;2023-05-07T01:44:58;15.73;;;5.68;;
6133;SDS011;3098;42.678;23.364;2023-05-07T01:47:25;9.98;;;5.45;;
6133;SDS011;3098;42.678;23.364;2023-05-07T01:49:52;9.55;;;5.72;;
6133;SDS011;3098;42.678;23.364;2023-05-07T01:52:21;9.00;;;4.97;;
6133;SDS011;3098;42.678;23.364;2023-05-07T01:54:49;9.65;;;5.50;;
6133;SDS011;3098;42.678;23.364;2023-05-07T01:57:18;12.27;;;5.63;;
6133;SDS011;3098;42.678;23.364;2023-05-07T01:59:46;17.95;;;6.00;;
6133;SDS011;3098;42.678;23.364;2023-05-07T02:02:13;10.95;;;5.50;;
6133;SDS011;3098;42.678;23.364;2023-05-07T02:04:40;12.10;;;6.18;;
6133;SDS011;3098;42.678;23.364;2023-05-07T02:07:07;11.02;;;6.47;;
6133;SDS011;3098;42.678;23.364;2023-05-07T02:09:35;10.63;;;6.72;;
6133;SDS011;3098;42.678;23.364;2023-05-07T02:12:02;13.23;;;6.22;;
6133;SDS011;3098;42.678;23.364;2023-05-07T02:14:30;15.00;;;6.90;;
6133;SDS011;3098;42.678;23.364;2023-05-07T02:16:57;14.30;;;6.60;;
6133;SDS011;3098;42.678;23.364;2023-05-07T02:19:24;11.80;;;6.47;;
6133;SDS011;3098;42.678;23.364;2023-05-07T02:21:52;13.65;;;5.78;;
6133;SDS011;3098;42.678;23.364;2023-05-07T02:24:19;16.52;;;6.43;;
6133;SDS011;3098;42.678;23.364;2023-05-07T02:26:46;13.80;;;7.00;;
6133;SDS011;3098;42.678;23.364;2023-05-07T02:29:13;11.93;;;6.45;;
6133;SDS011;3098;42.678;23.364;2023-05-07T02:31:42;15.82;;;7.15;;
6133;SDS011;3098;42.678;23.364;2023-05-07T02:34:09;11.63;;;6.53;;
6133;SDS011;3098;42.678;23.364;2023-05-07T02:36:36;14.68;;;7.35;;
6133;SDS011;3098;42.678;23.364;2023-05-07T02:39:03;13.48;;;7.22;;
6133;SDS011;3098;42.678;23.364;2023-05-07T02:41:31;12.38;;;7.05;;
6133;SDS011;3098;42.678;23.364;2023-05-07T02:43:58;19.83;;;7.85;;
6133;SDS011;3098;42.678;23.364;2023-05-07T02:46:25;15.80;;;7.78;;
6133;SDS011;3098;42.678;23.364;2023-05-07T02:48:53;18.83;;;9.18;;
6133;SDS011;3098;42.678;23.364;2023-05-07T02:51:21;16.40;;;8.82;;
6133;SDS011;3098;42.678;23.364;2023-05-07T02:53:49;15.00;;;7.35;;
6133;SDS011;3098;42.678;23.364;2023-05-07T02:56:16;14.80;;;8.10;;
6133;SDS011;3098;42.678;23.364;2023-05-07T02:58:43;14.65;;;8.40;;
6133;SDS011;3098;42.678;23.364;2023-05-07T03:01:10;18.52;;;9.38;;
6133;SDS011;3098;42.678;23.364;2023-05-07T03:03:39;15.32;;;8.40;;
6133;SDS011;3098;42.678;23.364;2023-05-07T03:06:08;21.17;;;8.13;;
6133;SDS011;3098;42.678;23.364;2023-05-07T03:08:35;16.48;;;8.50;;
6133;SDS011;3098;42.678;23.364;2023-05-07T03:11:03;17.23;;;9.05;;
6133;SDS011;3098;42.678;23.364;2023-05-07T03:13:30;17.95;;;10.38;;
6133;SDS011;3098;42.678;23.364;2023-05-07T03:15:57;23.08;;;9.70;;
6133;SDS011;3098;42.678;23.364;2023-05-07T03:18:25;23.75;;;10.27;;
6133;SDS011;3098;42.678;23.364;2023-05-07T03:20:52;19.55;;;9.88;;
6133;SDS011;3098;42.678;23.364;2023-05-07T03:23:20;19.15;;;9.93;;
6133;SDS011;3098;42.678;23.364;2023-05-07T03:25:47;24.00;;;11.05;;
6133;SDS011;3098;42.678;23.364;2023-05-07T03:28:14;22.65;;;9.57;;
6133;SDS011;3098;42.678;23.364;2023-05-07T03:30:41;23.40;;;10.95;;
6133;SDS011;3098;42.678;23.364;2023-05-07T03:33:08;18.20;;;9.85;;
6133;SDS011;3098;42.678;23.364;2023-05-07T03:35:35;21.63;;;10.30;;
6133;SDS011;3098;42.678;23.364;2023-05-07T03:38:02;17.90;;;10.13;;
6133;SDS011;3098;42.678;23.364;2023-05-07T03:40:31;21.35;;;9.55;;
6133;SDS011;3098;42.678;23.364;2023-05-07T03:42:59;21.20;;;10.65;;
6133;SDS011;3098;42.678;23.364;2023-05-07T03:45:26;20.80;;;10.30;;
6133;SDS011;3098;42.678;23.364;2023-05-07T03:47:53;18.05;;;9.70;;
6133;SDS011;3098;42.678;23.364;2023-05-07T03:50:21;19.83;;;9.90;;
6133;SDS011;3098;42.678;23.364;2023-05-07T03:52:48;20.95;;;8.93;;
6133;SDS011;3098;42.678;23.364;2023-05-07T03:55:15;18.38;;;9.80;;
6133;SDS011;3098;42.678;23.364;2023-05-07T03:57:44;16.98;;;8.95;;
6133;SDS011;3098;42.678;23.364;2023-05-07T04:00:12;21.08;;;10.13;;
6133;SDS011;3098;42.678;23.364;2023-05-07T04:02:40;23.67;;;9.60;;
6133;SDS011;3098;42.678;23.364;2023-05-07T04:05:09;19.90;;;10.32;;
6133;SDS011;3098;42.678;23.364;2023-05-07T04:07:36;19.63;;;10.13;;
6133;SDS011;3098;42.678;23.364;2023-05-07T04:10:04;22.17;;;10.23;;
6133;SDS011;3098;42.678;23.364;2023-05-07T04:12:31;21.17;;;10.95;;
6133;SDS011;3098;42.678;23.364;2023-05-07T04:15:00;20.08;;;9.77;;
6133;SDS011;3098;42.678;23.364;2023-05-07T04:17:27;18.83;;;9.25;;
6133;SDS011;3098;42.678;23.364;2023-05-07T04:19:54;20.75;;;10.23;;
6133;SDS011;3098;42.678;23.364;2023-05-07T04:22:22;21.20;;;9.98;;
6133;SDS011;3098;42.678;23.364;2023-05-07T04:24:49;19.98;;;9.98;;
6133;SDS011;3098;42.678;23.364;2023-05-07T04:27:16;21.88;;;10.07;;
6133;SDS011;3098;42.678;23.364;2023-05-07T04:29:43;20.58;;;10.02;;
6133;SDS011;3098;42.678;23.364;2023-05-07T04:32:13;23.38;;;10.05;;
6133;SDS011;3098;42.678;23.364;2023-05-07T04:34:42;21.08;;;10.27;;
6133;SDS011;3098;42.678;23.364;2023-05-07T04:37:08;18.88;;;10.13;;
6133;SDS011;3098;42.678;23.364;2023-05-07T04:39:36;19.25;;;9.07;;
6133;SDS011;3098;42.678;23.364;2023-05-07T04:42:04;18.55;;;9.55;;
6133;SDS011;3098;42.678;23.364;2023-05-07T04:44:32;18.55;;;9.27;;
6133;SDS011;3098;42.678;23.364;2023-05-07T04:46:59;25.20;;;9.77;;
6133;SDS011;3098;42.678;23.364;2023-05-07T04:49:28;20.38;;;10.15;;
6133;SDS011;3098;42.678;23.364;2023-05-07T04:51:55;22.52;;;10.40;;
6133;SDS011;3098;42.678;23.364;2023-05-07T04:54:23;17.35;;;8.80;;
6133;SDS011;3098;42.678;23.364;2023-05-07T04:56:51;22.10;;;10.38;;
6133;SDS011;3098;42.678;23.364;2023-05-07T04:59:18;21.67;;;9.38;;
6133;SDS011;3098;42.678;23.364;2023-05-07T05:01:46;16.73;;;8.48;;
6133;SDS011;3098;42.678;23.364;2023-05-07T05:04:13;15.60;;;8.85;;
6133;SDS011;3098;42.678;23.364;2023-05-07T05:06:42;19.35;;;8.23;;
6133;SDS011;3098;42.678;23.364;2023-05-07T05:09:10;15.13;;;7.90;;
6133;SDS011;3098;42.678;23.364;2023-05-07T05:11:38;18.02;;;7.53;;
6133;SDS011;3098;42.678;23.364;2023-05-07T05:14:05;12.10;;;6.80;;
6133;SDS011;3098;42.678;23.364;2023-05-07T05:16:32;12.55;;;7.20;;
6133;SDS011;3098;42.678;23.364;2023-05-07T05:19:01;13.50;;;6.93;;
6133;SDS011;3098;42.678;23.364;2023-05-07T05:21:30;12.55;;;6.80;;
6133;SDS011;3098;42.678;23.364;2023-05-07T05:23:59;15.77;;;7.60;;
6133;SDS011;3098;42.678;23.364;2023-05-07T05:26:26;10.65;;;6.57;;
6133;SDS011;3098;42.678;23.364;2023-05-07T05:28:53;14.27;;;6.90;;
6133;SDS011;3098;42.678;23.364;2023-05-07T05:31:21;14.90;;;6.82;;
6133;SDS011;3098;42.678;23.364;2023-05-07T05:33:48;11.48;;;7.00;;
6133;SDS011;3098;42.678;23.364;2023-05-07T05:36:15;11.93;;;7.07;;
6133;SDS011;3098;42.678;23.364;2023-05-07T05:38:42;11.73;;;6.22;;
6133;SDS011;3098;42.678;23.364;2023-05-07T05:41:11;12.20;;;7.10;;
6133;SDS011;3098;42.678;23.364;2023-05-07T05:43:38;9.95;;;7.80;;
6133;SDS011;3098;42.678;23.364;2023-05-07T05:46:06;11.30;;;6.55;;
6133;SDS011;3098;42.678;23.364;2023-05-07T05:48:34;9.27;;;6.00;;
6133;SDS011;3098;42.678;23.364;2023-05-07T05:51:01;13.40;;;7.28;;
6133;SDS011;3098;42.678;23.364;2023-05-07T05:53:28;13.90;;;7.03;;
6133;SDS011;3098;42.678;23.364;2023-05-07T05:55:56;13.77;;;7.75;;
6133;SDS011;3098;42.678;23.364;2023-05-07T05:58:25;12.98;;;7.25;;
6133;SDS011;3098;42.678;23.364;2023-05-07T06:00:52;15.30;;;7.68;;
6133;SDS011;3098;42.678;23.364;2023-05-07T06:03:19;11.32;;;6.75;;
6133;SDS011;3098;42.678;23.364;2023-05-07T06:05:46;14.93;;;8.32;;
6133;SDS011;3098;42.678;23.364;2023-05-07T06:08:13;12.60;;;6.38;;
6133;SDS011;3098;42.678;23.364;2023-05-07T06:10:40;13.32;;;8.20;;
6133;SDS011;3098;42.678;23.364;2023-05-07T06:13:08;11.95;;;7.15;;
6133;SDS011;3098;42.678;23.364;2023-05-07T06:15:39;10.48;;;6.40;;
6133;SDS011;3098;42.678;23.364;2023-05-07T06:18:07;16.27;;;7.85;;
6133;SDS011;3098;42.678;23.364;2023-05-07T06:20:36;12.75;;;7.45;;
6133;SDS011;3098;42.678;23.364;2023-05-07T06:23:03;12.32;;;7.53;;
6133;SDS011;3098;42.678;23.364;2023-05-07T06:25:31;11.40;;;6.95;;
6133;SDS011;3098;42.678;23.364;2023-05-07T06:27:58;14.43;;;8.38;;
6133;SDS011;3098;42.678;23.364;2023-05-07T06:30:26;12.18;;;6.90;;
6133;SDS011;3098;42.678;23.364;2023-05-07T06:32:56;15.70;;;6.57;;
6133;SDS011;3098;42.678;23.364;2023-05-07T06:35:25;10.55;;;6.60;;
6133;SDS011;3098;42.678;23.364;2023-05-07T06:37:52;16.45;;;8.13;;
6133;SDS011;3098;42.678;23.364;2023-05-07T06:40:19;10.60;;;6.90;;
6133;SDS011;3098;42.678;23.364;2023-05-07T06:42:46;14.15;;;6.75;;
6133;SDS011;3098;42.678;23.364;2023-05-07T06:45:13;11.35;;;7.20;;
6133;SDS011;3098;42.678;23.364;2023-05-07T06:47:40;13.60;;;6.80;;
6133;SDS011;3098;42.678;23.364;2023-05-07T06:50:09;11.52;;;6.63;;
6133;SDS011;3098;42.678;23.364;2023-05-07T06:52:37;11.95;;;6.95;;
6133;SDS011;3098;42.678;23.364;2023-05-07T06:55:05;9.90;;;6.75;;
6133;SDS011;3098;42.678;23.364;2023-05-07T06:57:34;12.10;;;6.65;;
6133;SDS011;3098;42.678;23.364;2023-05-07T07:00:01;10.05;;;6.18;;
6133;SDS011;3098;42.678;23.364;2023-05-07T07:02:29;11.80;;;6.45;;
6133;SDS011;3098;42.678;23.364;2023-05-07T07:04:57;8.38;;;5.82;;
6133;SDS011;3098;42.678;23.364;2023-05-07T07:07:28;12.10;;;6.88;;
6133;SDS011;3098;42.678;23.364;2023-05-07T07:09:55;16.70;;;7.15;;
6133;SDS011;3098;42.678;23.364;2023-05-07T07:12:22;9.75;;;6.57;;
6133;SDS011;3098;42.678;23.364;2023-05-07T07:14:51;13.32;;;7.43;;
6133;SDS011;3098;42.678;23.364;2023-05-07T07:17:18;10.35;;;6.75;;
6133;SDS011;3098;42.678;23.364;2023-05-07T07:19:45;12.35;;;7.53;;
6133;SDS011;3098;42.678;23.364;2023-05-07T07:22:12;14.30;;;7.68;;
6133;SDS011;3098;42.678;23.364;2023-05-07T07:24:40;12.20;;;7.05;;
6133;SDS011;3098;42.678;23.364;2023-05-07T07:27:07;11.73;;;6.75;;
6133;SDS011;3098;42.678;23.364;2023-05-07T07:29:34;12.93;;;7.50;;
6133;SDS011;3098;42.678;23.364;2023-05-07T07:32:02;20.15;;;7.60;;
6133;SDS011;3098;42.678;23.364;2023-05-07T07:34:28;13.15;;;8.82;;
6133;SDS011;3098;42.678;23.364;2023-05-07T07:36:56;16.48;;;8.68;;
6133;SDS011;3098;42.678;23.364;2023-05-07T07:39:30;14.57;;;9.77;;
6133;SDS011;3098;42.678;23.364;2023-05-07T07:41:59;14.13;;;7.80;;
6133;SDS011;3098;42.678;23.364;2023-05-07T07:44:28;11.45;;;7.85;;
6133;SDS011;3098;42.678;23.364;2023-05-07T07:46:56;15.45;;;8.93;;
6133;SDS011;3098;42.678;23.364;2023-05-07T07:49:24;10.88;;;7.53;;
6133;SDS011;3098;42.678;23.364;2023-05-07T07:51:51;11.55;;;7.78;;
6133;SDS011;3098;42.678;23.364;2023-05-07T07:54:18;14.20;;;7.68;;
6133;SDS011;3098;42.678;23.364;2023-05-07T07:56:46;12.90;;;7.65;;
6133;SDS011;3098;42.678;23.364;2023-05-07T07:59:15;21.02;;;7.55;;
6133;SDS011;3098;42.678;23.364;2023-05-07T08:01:43;13.88;;;8.23;;
6133;SDS011;3098;42.678;23.364;2023-05-07T08:04:13;15.50;;;8.20;;
6133;SDS011;3098;42.678;23.364;2023-05-07T08:06:42;13.30;;;7.95;;
6133;SDS011;3098;42.678;23.364;2023-05-07T08:09:09;12.13;;;8.02;;
6133;SDS011;3098;42.678;23.364;2023-05-07T08:11:36;13.32;;;7.20;;
6133;SDS011;3098;42.678;23.364;2023-05-07T08:14:03;11.98;;;8.30;;
6133;SDS011;3098;42.678;23.364;2023-05-07T08:16:32;11.75;;;8.02;;
6133;SDS011;3098;42.678;23.364;2023-05-07T08:18:59;11.82;;;6.82;;
6133;SDS011;3098;42.678;23.364;2023-05-07T08:21:29;17.77;;;7.28;;
6133;SDS011;3098;42.678;23.364;2023-05-07T08:23:57;13.18;;;7.72;;
6133;SDS011;3098;42.678;23.364;2023-05-07T08:26:24;16.63;;;7.00;;
6133;SDS011;3098;42.678;23.364;2023-05-07T08:28:51;14.35;;;7.90;;
6133;SDS011;3098;42.678;23.364;2023-05-07T08:31:19;14.32;;;7.72;;
6133;SDS011;3098;42.678;23.364;2023-05-07T08:33:48;14.27;;;7.50;;
6133;SDS011;3098;42.678;23.364;2023-05-07T08:36:16;14.60;;;7.20;;
6133;SDS011;3098;42.678;23.364;2023-05-07T08:38:44;13.30;;;7.40;;
6133;SDS011;3098;42.678;23.364;2023-05-07T08:41:11;11.65;;;7.18;;
6133;SDS011;3098;42.678;23.364;2023-05-07T08:43:39;8.95;;;6.45;;
6133;SDS011;3098;42.678;23.364;2023-05-07T08:46:08;12.07;;;7.28;;
6133;SDS011;3098;42.678;23.364;2023-05-07T08:48:36;13.07;;;6.75;;
6133;SDS011;3098;42.678;23.364;2023-05-07T08:51:05;11.57;;;6.43;;
6133;SDS011;3098;42.678;23.364;2023-05-07T08:53:32;9.73;;;6.25;;
6133;SDS011;3098;42.678;23.364;2023-05-07T08:56:00;14.27;;;6.20;;
6133;SDS011;3098;42.678;23.364;2023-05-07T08:58:29;10.40;;;6.63;;
6133;SDS011;3098;42.678;23.364;2023-05-07T09:00:56;8.45;;;5.63;;
6133;SDS011;3098;42.678;23.364;2023-05-07T09:03:26;7.82;;;5.50;;
6133;SDS011;3098;42.678;23.364;2023-05-07T09:05:53;7.82;;;5.43;;
6133;SDS011;3098;42.678;23.364;2023-05-07T09:08:24;7.63;;;5.25;;
6133;SDS011;3098;42.678;23.364;2023-05-07T09:10:52;6.45;;;4.63;;
6133;SDS011;3098;42.678;23.364;2023-05-07T09:13:20;6.97;;;4.95;;
6133;SDS011;3098;42.678;23.364;2023-05-07T09:15:48;8.73;;;5.45;;
6133;SDS011;3098;42.678;23.364;2023-05-07T09:18:15;7.53;;;4.75;;
6133;SDS011;3098;42.678;23.364;2023-05-07T09:20:45;6.95;;;4.40;;
6133;SDS011;3098;42.678;23.364;2023-05-07T09:23:12;9.80;;;4.68;;
6133;SDS011;3098;42.678;23.364;2023-05-07T09:25:42;6.40;;;4.75;;
6133;SDS011;3098;42.678;23.364;2023-05-07T09:28:09;10.10;;;4.85;;
6133;SDS011;3098;42.678;23.364;2023-05-07T09:30:37;7.10;;;4.88;;
6133;SDS011;3098;42.678;23.364;2023-05-07T09:33:04;8.38;;;4.75;;
6133;SDS011;3098;42.678;23.364;2023-05-07T09:35:31;6.85;;;4.65;;
6133;SDS011;3098;42.678;23.364;2023-05-07T09:38:00;7.20;;;4.45;;
6133;SDS011;3098;42.678;23.364;2023-05-07T09:40:28;6.50;;;4.57;;
6133;SDS011;3098;42.678;23.364;2023-05-07T09:43:01;6.10;;;3.92;;
6133;SDS011;3098;42.678;23.364;2023-05-07T09:45:35;6.40;;;4.30;;
6133;SDS011;3098;42.678;23.364;2023-05-07T09:48:04;7.05;;;3.67;;
6133;SDS011;3098;42.678;23.364;2023-05-07T09:50:35;8.70;;;4.75;;
6133;SDS011;3098;42.678;23.364;2023-05-07T09:53:08;5.78;;;3.97;;
6133;SDS011;3098;42.678;23.364;2023-05-07T09:55:37;6.07;;;4.15;;
6133;SDS011;3098;42.678;23.364;2023-05-07T09:58:06;5.55;;;3.75;;
6133;SDS011;3098;42.678;23.364;2023-05-07T10:00:34;5.65;;;4.28;;
6133;SDS011;3098;42.678;23.364;2023-05-07T10:03:02;5.65;;;4.05;;
6133;SDS011;3098;42.678;23.364;2023-05-07T10:05:30;5.60;;;4.00;;
6133;SDS011;3098;42.678;23.364;2023-05-07T10:07:59;5.00;;;3.50;;
6133;SDS011;3098;42.678;23.364;2023-05-07T10:10:27;9.18;;;3.88;;
6133;SDS011;3098;42.678;23.364;2023-05-07T10:12:55;8.48;;;4.90;;
6133;SDS011;3098;42.678;23.364;2023-05-07T10:15:25;5.97;;;3.05;;
6133;SDS011;3098;42.678;23.364;2023-05-07T10:17:54;5.38;;;3.53;;
6133;SDS011;3098;42.678;23.364;2023-05-07T10:20:22;8.07;;;4.43;;
6133;SDS011;3098;42.678;23.364;2023-05-07T10:22:50;12.65;;;3.85;;
6133;SDS011;3098;42.678;23.364;2023-05-07T10:25:21;9.38;;;3.58;;
6133;SDS011;3098;42.678;23.364;2023-05-07T10:27:52;5.57;;;3.38;;
6133;SDS011;3098;42.678;23.364;2023-05-07T10:30:26;5.32;;;3.20;;
6133;SDS011;3098;42.678;23.364;2023-05-07T10:33:06;7.82;;;4.70;;
6133;SDS011;3098;42.678;23.364;2023-05-07T10:35:38;4.60;;;3.40;;
6133;SDS011;3098;42.678;23.364;2023-05-07T10:38:07;6.70;;;4.32;;
6133;SDS011;3098;42.678;23.364;2023-05-07T10:40:34;3.90;;;3.10;;
6133;SDS011;3098;42.678;23.364;2023-05-07T10:43:02;5.22;;;3.75;;
6133;SDS011;3098;42.678;23.364;2023-05-07T10:45:32;4.32;;;3.25;;
6133;SDS011;3098;42.678;23.364;2023-05-07T10:48:06;5.15;;;3.55;;
6133;SDS011;3098;42.678;23.364;2023-05-07T10:50:35;6.50;;;4.10;;
6133;SDS011;3098;42.678;23.364;2023-05-07T10:58:54;4.70;;;3.40;;
6133;SDS011;3098;42.678;23.364;2023-05-07T11:04:19;7.60;;;4.40;;
6133;SDS011;3098;42.678;23.364;2023-05-07T11:10:20;7.13;;;3.60;;
6133;SDS011;3098;42.678;23.364;2023-05-07T11:12:56;9.85;;;3.50;;
6133;SDS011;3098;42.678;23.364;2023-05-07T11:15:39;4.78;;;3.67;;
6133;SDS011;3098;42.678;23.364;2023-05-07T11:18:10;5.05;;;3.60;;
6133;SDS011;3098;42.678;23.364;2023-05-07T11:20:48;4.60;;;3.40;;
6133;SDS011;3098;42.678;23.364;2023-05-07T11:26:42;5.30;;;4.03;;
6133;SDS011;3098;42.678;23.364;2023-05-07T11:29:14;7.75;;;3.80;;
6133;SDS011;3098;42.678;23.364;2023-05-07T11:31:44;3.85;;;3.45;;
6133;SDS011;3098;42.678;23.364;2023-05-07T11:34:19;5.45;;;2.88;;
6133;SDS011;3098;42.678;23.364;2023-05-07T11:36:49;5.97;;;3.70;;
6133;SDS011;3098;42.678;23.364;2023-05-07T11:39:26;4.50;;;3.42;;
6133;SDS011;3098;42.678;23.364;2023-05-07T11:41:54;5.47;;;3.28;;
6133;SDS011;3098;42.678;23.364;2023-05-07T11:44:22;5.65;;;3.63;;
6133;SDS011;3098;42.678;23.364;2023-05-07T11:46:49;4.65;;;3.60;;
6133;SDS011;3098;42.678;23.364;2023-05-07T11:49:16;7.45;;;3.60;;
6133;SDS011;3098;42.678;23.364;2023-05-07T11:51:46;5.28;;;3.75;;
6133;SDS011;3098;42.678;23.364;2023-05-07T11:54:15;4.15;;;3.63;;
6133;SDS011;3098;42.678;23.364;2023-05-07T11:56:44;4.97;;;3.55;;
6133;SDS011;3098;42.678;23.364;2023-05-07T11:59:18;6.18;;;3.70;;
6133;SDS011;3098;42.678;23.364;2023-05-07T12:01:45;6.50;;;3.65;;
6133;SDS011;3098;42.678;23.364;2023-05-07T12:04:14;5.88;;;3.90;;
6133;SDS011;3098;42.678;23.364;2023-05-07T12:06:48;5.50;;;3.83;;
6133;SDS011;3098;42.678;23.364;2023-05-07T12:09:16;5.45;;;4.18;;
6133;SDS011;3098;42.678;23.364;2023-05-07T12:11:45;10.63;;;4.30;;
6133;SDS011;3098;42.678;23.364;2023-05-07T12:14:12;5.32;;;3.47;;
6133;SDS011;3098;42.678;23.364;2023-05-07T12:16:40;5.43;;;3.95;;
6133;SDS011;3098;42.678;23.364;2023-05-07T12:19:08;6.10;;;4.35;;
6133;SDS011;3098;42.678;23.364;2023-05-07T12:21:37;6.63;;;4.70;;
6133;SDS011;3098;42.678;23.364;2023-05-07T12:24:07;9.77;;;3.90;;
6133;SDS011;3098;42.678;23.364;2023-05-07T12:26:37;4.57;;;3.78;;
6133;SDS011;3098;42.678;23.364;2023-05-07T12:29:05;8.25;;;4.20;;
6133;SDS011;3098;42.678;23.364;2023-05-07T12:31:33;7.47;;;4.00;;
6133;SDS011;3098;42.678;23.364;2023-05-07T12:34:00;6.13;;;3.42;;
6133;SDS011;3098;42.678;23.364;2023-05-07T12:36:35;5.07;;;3.95;;
6133;SDS011;3098;42.678;23.364;2023-05-07T12:39:04;5.07;;;3.40;;
6133;SDS011;3098;42.678;23.364;2023-05-07T12:41:43;6.25;;;3.60;;
6133;SDS011;3098;42.678;23.364;2023-05-07T12:44:21;6.13;;;3.38;;
6133;SDS011;3098;42.678;23.364;2023-05-07T12:46:50;5.30;;;3.42;;
6133;SDS011;3098;42.678;23.364;2023-05-07T12:49:17;6.22;;;3.30;;
6133;SDS011;3098;42.678;23.364;2023-05-07T12:51:44;5.47;;;3.00;;
6133;SDS011;3098;42.678;23.364;2023-05-07T12:54:13;4.22;;;2.72;;
6133;SDS011;3098;42.678;23.364;2023-05-07T12:56:42;4.22;;;2.63;;
6133;SDS011;3098;42.678;23.364;2023-05-07T12:59:10;3.38;;;2.55;;
6133;SDS011;3098;42.678;23.364;2023-05-07T13:01:37;3.78;;;2.60;;
6133;SDS011;3098;42.678;23.364;2023-05-07T13:04:04;8.25;;;2.60;;
6133;SDS011;3098;42.678;23.364;2023-05-07T13:06:31;7.07;;;3.00;;
6133;SDS011;3098;42.678;23.364;2023-05-07T13:08:59;3.55;;;2.80;;
6133;SDS011;3098;42.678;23.364;2023-05-07T13:11:26;4.72;;;2.92;;
6133;SDS011;3098;42.678;23.364;2023-05-07T13:13:55;4.03;;;2.78;;
6133;SDS011;3098;42.678;23.364;2023-05-07T13:16:22;3.97;;;2.97;;
6133;SDS011;3098;42.678;23.364;2023-05-07T13:18:49;3.63;;;2.92;;
6133;SDS011;3098;42.678;23.364;2023-05-07T13:21:17;4.55;;;2.70;;
6133;SDS011;3098;42.678;23.364;2023-05-07T13:23:45;4.03;;;2.55;;
6133;SDS011;3098;42.678;23.364;2023-05-07T13:26:12;7.18;;;2.85;;
6133;SDS011;3098;42.678;23.364;2023-05-07T13:28:39;6.05;;;2.60;;
6133;SDS011;3098;42.678;23.364;2023-05-07T13:31:08;7.05;;;2.97;;
6133;SDS011;3098;42.678;23.364;2023-05-07T13:33:35;5.25;;;2.90;;
6133;SDS011;3098;42.678;23.364;2023-05-07T13:36:02;7.60;;;2.80;;
6133;SDS011;3098;42.678;23.364;2023-05-07T13:38:30;4.80;;;2.80;;
6133;SDS011;3098;42.678;23.364;2023-05-07T13:40:58;4.78;;;2.83;;
6133;SDS011;3098;42.678;23.364;2023-05-07T13:43:26;8.57;;;2.75;;
6133;SDS011;3098;42.678;23.364;2023-05-07T13:45:53;4.57;;;2.75;;
6133;SDS011;3098;42.678;23.364;2023-05-07T13:48:22;3.80;;;2.97;;
6133;SDS011;3098;42.678;23.364;2023-05-07T13:50:49;5.65;;;2.78;;
6133;SDS011;3098;42.678;23.364;2023-05-07T13:53:17;6.50;;;2.78;;
6133;SDS011;3098;42.678;23.364;2023-05-07T13:55:45;7.47;;;3.03;;
6133;SDS011;3098;42.678;23.364;2023-05-07T13:58:12;3.45;;;2.75;;
6133;SDS011;3098;42.678;23.364;2023-05-07T14:00:39;2.60;;;2.40;;
6133;SDS011;3098;42.678;23.364;2023-05-07T14:03:07;3.47;;;2.95;;
6133;SDS011;3098;42.678;23.364;2023-05-07T14:05:36;5.57;;;2.97;;
6133;SDS011;3098;42.678;23.364;2023-05-07T14:08:03;4.05;;;3.10;;
6133;SDS011;3098;42.678;23.364;2023-05-07T14:10:30;3.40;;;2.55;;
6133;SDS011;3098;42.678;23.364;2023-05-07T14:13:00;8.10;;;3.22;;
6133;SDS011;3098;42.678;23.364;2023-05-07T14:15:27;6.95;;;3.10;;
6133;SDS011;3098;42.678;23.364;2023-05-07T14:17:54;6.43;;;3.20;;
6133;SDS011;3098;42.678;23.364;2023-05-07T14:20:22;6.35;;;3.10;;
6133;SDS011;3098;42.678;23.364;2023-05-07T14:22:51;9.43;;;3.20;;
6133;SDS011;3098;42.678;23.364;2023-05-07T14:25:19;4.57;;;3.33;;
6133;SDS011;3098;42.678;23.364;2023-05-07T14:27:47;5.38;;;3.13;;
6133;SDS011;3098;42.678;23.364;2023-05-07T14:30:14;4.53;;;3.05;;
6133;SDS011;3098;42.678;23.364;2023-05-07T14:32:41;5.68;;;2.97;;
6133;SDS011;3098;42.678;23.364;2023-05-07T14:35:09;5.07;;;3.42;;
6133;SDS011;3098;42.678;23.364;2023-05-07T14:37:36;5.03;;;3.08;;
6133;SDS011;3098;42.678;23.364;2023-05-07T14:40:05;3.08;;;2.58;;
6133;SDS011;3098;42.678;23.364;2023-05-07T14:42:34;3.65;;;3.00;;
6133;SDS011;3098;42.678;23.364;2023-05-07T14:45:01;3.95;;;2.83;;
6133;SDS011;3098;42.678;23.364;2023-05-07T14:47:28;3.70;;;2.80;;
6133;SDS011;3098;42.678;23.364;2023-05-07T14:49:56;4.78;;;3.15;;
6133;SDS011;3098;42.678;23.364;2023-05-07T14:52:24;6.88;;;3.40;;
6133;SDS011;3098;42.678;23.364;2023-05-07T14:54:51;3.45;;;2.60;;
6133;SDS011;3098;42.678;23.364;2023-05-07T14:57:20;5.05;;;3.45;;
6133;SDS011;3098;42.678;23.364;2023-05-07T14:59:47;6.85;;;3.10;;
6133;SDS011;3098;42.678;23.364;2023-05-07T15:02:14;8.27;;;3.42;;
6133;SDS011;3098;42.678;23.364;2023-05-07T15:04:42;4.13;;;3.10;;
6133;SDS011;3098;42.678;23.364;2023-05-07T15:07:11;4.32;;;3.05;;
6133;SDS011;3098;42.678;23.364;2023-05-07T15:09:40;3.72;;;2.75;;
6133;SDS011;3098;42.678;23.364;2023-05-07T15:12:07;4.10;;;2.97;;
6133;SDS011;3098;42.678;23.364;2023-05-07T15:14:37;3.20;;;2.65;;